Time;durP1;ratioP1;P1;durP2;ratioP2;P2;SDS_P1;SDS_P2;PMS_P1;PMS_P2;Temp;Humidity;BMP_temperature;BMP_pressure;BME280_temperature;BME280_humidity;BME280_pressure;Samples;Min_cycle;Max_cycle;Signal;HPM_P1;HPM_P2
2023/11/18 00:00:34;;;;;;;21.30;19.20;;;2.90;99.90;;;;;;5133146;28;20500;-88
2023/11/18 00:03:02;;;;;;;22.77;19.03;;;2.80;99.90;;;;;;5132154;27;20473;-87
2023/11/18 00:05:31;;;;;;;21.20;19.03;;;2.80;99.90;;;;;;5132436;28;20761;-87
2023/11/18 00:07:59;;;;;;;23.73;20.50;;;3.10;99.90;;;;;;5132437;27;20442;-87
2023/11/18 00:10:29;;;;;;;22.50;20.10;;;2.70;99.90;;;;;;5132245;28;20478;-86
2023/11/18 00:12:59;;;;;;;25.17;22.10;;;3.00;99.90;;;;;;5128001;27;20448;-87
2023/11/18 00:15:27;;;;;;;27.20;22.10;;;2.70;99.90;;;;;;5118578;28;20470;-87
2023/11/18 00:17:55;;;;;;;22.57;20.23;;;2.60;99.90;;;;;;5118868;27;20462;-87
2023/11/18 00:20:24;;;;;;;24.93;22.37;;;2.60;99.90;;;;;;5118417;28;20939;-87
2023/11/18 00:22:53;;;;;;;22.73;20.40;;;2.60;99.90;;;;;;5118372;28;20993;-86
2023/11/18 00:25:21;;;;;;;23.50;20.93;;;2.70;99.90;;;;;;5118336;28;20463;-86
2023/11/18 00:27:50;;;;;;;24.40;21.70;;;2.60;99.90;;;;;;5117857;28;20458;-87
2023/11/18 00:30:20;;;;;;;23.57;21.30;;;2.50;99.90;;;;;;5118232;28;20447;-87
2023/11/18 00:32:48;;;;;;;29.40;22.60;;;2.70;99.90;;;;;;5118007;28;20897;-87
2023/11/18 00:35:17;;;;;;;23.83;20.77;;;2.60;99.90;;;;;;5118395;28;20978;-87
2023/11/18 00:37:46;;;;;;;23.20;20.80;;;2.50;99.90;;;;;;5118100;28;20482;-88
2023/11/18 00:40:17;;;;;;;22.60;20.20;;;2.50;99.90;;;;;;5118012;28;20478;-87
2023/11/18 00:42:46;;;;;;;24.47;21.30;;;2.40;99.90;;;;;;5118196;28;21021;-87
2023/11/18 00:45:14;;;;;;;25.33;19.10;;;2.50;99.90;;;;;;5118301;28;20463;-86
2023/11/18 00:47:44;;;;;;;21.07;18.87;;;2.40;99.90;;;;;;5117999;28;20450;-87
2023/11/18 00:50:12;;;;;;;22.10;19.53;;;2.40;99.90;;;;;;5117794;27;20443;-87
2023/11/18 00:52:42;;;;;;;24.10;21.57;;;2.40;99.90;;;;;;5117807;28;20522;-87
2023/11/18 00:55:11;;;;;;;21.33;19.03;;;2.40;99.90;;;;;;5117690;28;20887;-88
2023/11/18 00:57:40;;;;;;;22.07;19.77;;;2.40;99.90;;;;;;5118017;28;20460;-89
2023/11/18 01:00:13;;;;;;;21.80;19.50;;;2.30;99.90;;;;;;5118233;28;20483;-88
2023/11/18 01:02:45;;;;;;;20.87;18.73;;;2.30;99.90;;;;;;5118310;28;20529;-88
2023/11/18 01:05:13;;;;;;;26.27;21.67;;;2.30;99.90;;;;;;5117622;28;20466;-88
2023/11/18 01:07:43;;;;;;;30.33;21.97;;;2.30;99.90;;;;;;5117727;28;20458;-88
2023/11/18 01:10:13;;;;;;;27.00;21.20;;;2.30;99.90;;;;;;5117831;28;20450;-88
2023/11/18 01:12:44;;;;;;;28.70;21.57;;;2.30;99.90;;;;;;5118991;28;20414;-87
2023/11/18 01:15:14;;;;;;;25.70;20.10;;;2.30;99.90;;;;;;5117650;28;20548;-88
2023/11/18 01:17:44;;;;;;;28.53;21.80;;;2.30;99.90;;;;;;5117195;28;20451;-87
2023/11/18 01:20:13;;;;;;;27.17;20.13;;;2.30;99.90;;;;;;5118444;28;20457;-88
2023/11/18 01:22:45;;;;;;;26.20;20.53;;;2.30;99.90;;;;;;5118478;28;20472;-87
2023/11/18 01:25:14;;;;;;;24.27;19.37;;;2.30;99.90;;;;;;5117095;28;20463;-88
2023/11/18 01:27:42;;;;;;;21.53;17.80;;;2.30;99.90;;;;;;5118245;28;20462;-87
2023/11/18 01:30:11;;;;;;;20.93;18.73;;;2.30;99.90;;;;;;5117254;28;20446;-86
2023/11/18 01:32:40;;;;;;;21.03;18.10;;;2.40;99.90;;;;;;5117452;28;20438;-87
2023/11/18 01:35:12;;;;;;;17.00;15.00;;;2.40;99.90;;;;;;5117025;28;20477;-87
2023/11/18 01:37:40;;;;;;;20.50;17.60;;;2.40;99.90;;;;;;5118283;28;20529;-87
2023/11/18 01:40:12;;;;;;;19.07;15.80;;;2.70;99.90;;;;;;5116700;28;20457;-86
2023/11/18 01:42:43;;;;;;;21.40;16.60;;;2.50;99.90;;;;;;5116689;28;20532;-86
2023/11/18 01:45:12;;;;;;;18.40;16.00;;;2.50;99.90;;;;;;5116377;28;20473;-86
2023/11/18 01:47:41;;;;;;;18.37;15.47;;;2.50;99.90;;;;;;5116308;28;20454;-86
2023/11/18 01:50:14;;;;;;;21.20;15.50;;;2.50;99.90;;;;;;5116425;28;20443;-87
2023/11/18 01:52:44;;;;;;;17.00;14.83;;;2.60;99.90;;;;;;5116342;28;20447;-87
2023/11/18 01:55:14;;;;;;;16.03;14.07;;;2.60;99.90;;;;;;5116487;28;20509;-87
2023/11/18 01:57:43;;;;;;;17.37;14.30;;;2.70;99.90;;;;;;5116891;28;20447;-87
2023/11/18 02:00:17;;;;;;;17.80;13.83;;;2.70;99.90;;;;;;5116475;28;20439;-87
2023/11/18 02:02:46;;;;;;;16.67;13.97;;;2.70;99.90;;;;;;5116734;28;20511;-87
2023/11/18 02:05:17;;;;;;;18.20;14.00;;;2.70;99.90;;;;;;5116759;28;20463;-88
2023/11/18 02:07:46;;;;;;;15.07;13.47;;;2.70;99.90;;;;;;5116853;28;20443;-88
2023/11/18 02:10:15;;;;;;;14.47;13.00;;;2.80;99.90;;;;;;5116520;28;20472;-88
2023/11/18 02:12:52;;;;;;;17.77;14.83;;;2.80;99.90;;;;;;5116507;28;20454;-87
2023/11/18 02:15:23;;;;;;;15.93;14.23;;;2.80;99.90;;;;;;5116058;28;20469;-87
2023/11/18 02:17:54;;;;;;;16.40;14.40;;;2.80;99.90;;;;;;5115716;28;20501;-87
2023/11/18 02:20:25;;;;;;;14.70;13.20;;;2.90;99.90;;;;;;5115871;28;20453;-86
2023/11/18 02:22:53;;;;;;;16.43;14.13;;;2.90;99.90;;;;;;5115912;28;20470;-87
2023/11/18 02:25:26;;;;;;;16.80;12.90;;;2.90;99.90;;;;;;5115350;28;20462;-87
2023/11/18 02:27:56;;;;;;;14.77;13.17;;;2.90;99.90;;;;;;5116816;28;20426;-87
2023/11/18 02:30:25;;;;;;;18.00;14.40;;;2.90;99.90;;;;;;5115402;28;20446;-86
2023/11/18 02:33:02;;;;;;;20.60;17.83;;;3.00;99.90;;;;;;5115009;28;20447;-87
2023/11/18 02:35:37;;;;;;;18.40;13.90;;;3.10;99.90;;;;;;5114720;28;20471;-87
2023/11/18 02:38:07;;;;;;;14.93;13.43;;;3.00;99.90;;;;;;5115243;28;20880;-86
2023/11/18 02:40:39;;;;;;;14.17;12.77;;;3.10;99.90;;;;;;5115294;28;20450;-87
2023/11/18 02:43:09;;;;;;;14.17;12.50;;;3.20;99.90;;;;;;5116246;28;20460;-87
2023/11/18 02:45:39;;;;;;;15.70;14.10;;;3.10;99.90;;;;;;5115954;28;20832;-86
2023/11/18 02:48:08;;;;;;;16.00;14.13;;;3.20;99.90;;;;;;5114985;28;20451;-88
2023/11/18 02:50:36;;;;;;;15.40;13.10;;;3.20;99.90;;;;;;5116430;28;20885;-87
2023/11/18 02:53:06;;;;;;;14.10;12.53;;;3.20;99.90;;;;;;5117999;28;20450;-87
2023/11/18 02:55:34;;;;;;;13.03;11.63;;;3.30;99.90;;;;;;5118705;28;20535;-87
2023/11/18 02:58:03;;;;;;;14.97;13.40;;;3.40;99.90;;;;;;5117147;28;20440;-86
2023/11/18 03:00:35;;;;;;;17.63;14.43;;;3.30;99.90;;;;;;5113872;28;20443;-87
2023/11/18 03:03:03;;;;;;;17.50;15.80;;;3.40;99.90;;;;;;5117496;28;20465;-88
2023/11/18 03:05:32;;;;;;;20.20;15.20;;;3.40;99.90;;;;;;5119303;28;20467;-87
2023/11/18 03:08:01;;;;;;;18.03;16.07;;;3.40;99.90;;;;;;5118683;28;20538;-87
2023/11/18 03:10:33;;;;;;;16.20;13.97;;;3.40;99.90;;;;;;5118292;28;20454;-87
2023/11/18 03:13:02;;;;;;;17.37;15.47;;;3.50;99.90;;;;;;5117803;28;20455;-87
2023/11/18 03:15:30;;;;;;;17.33;15.50;;;3.50;99.90;;;;;;5117562;28;20470;-87
2023/11/18 03:18:00;;;;;;;17.93;15.57;;;3.50;99.90;;;;;;5118233;28;20965;-87
2023/11/18 03:20:28;;;;;;;17.63;15.83;;;3.50;99.90;;;;;;5118158;28;20824;-88
2023/11/18 03:23:01;;;;;;;18.73;16.30;;;3.60;99.90;;;;;;5117673;28;20458;-86
2023/11/18 03:25:30;;;;;;;19.03;17.10;;;3.60;99.90;;;;;;5118121;28;20827;-87
2023/11/18 03:27:59;;;;;;;19.30;17.33;;;3.50;99.90;;;;;;5118285;28;20570;-86
2023/11/18 03:30:28;;;;;;;17.30;15.30;;;3.60;99.90;;;;;;5117043;28;20442;-87
2023/11/18 03:32:57;;;;;;;19.10;16.90;;;3.60;99.90;;;;;;5117135;28;20454;-86
2023/11/18 03:35:27;;;;;;;20.73;17.80;;;3.60;99.90;;;;;;5116352;28;20998;-86
2023/11/18 03:37:55;;;;;;;19.70;17.30;;;3.60;99.90;;;;;;5117262;28;20966;-87
2023/11/18 03:40:24;;;;;;;21.40;18.80;;;3.60;99.90;;;;;;5116561;28;20951;-87
2023/11/18 03:42:53;;;;;;;21.97;19.57;;;3.60;99.90;;;;;;5116826;28;20452;-87
2023/11/18 03:45:21;;;;;;;22.27;19.50;;;3.60;99.90;;;;;;5116928;28;20573;-87
2023/11/18 03:47:49;;;;;;;21.40;18.70;;;3.60;99.90;;;;;;5117270;28;20447;-87
2023/11/18 03:50:18;;;;;;;22.63;18.30;;;3.70;99.90;;;;;;5120619;28;20876;-88
2023/11/18 03:52:49;;;;;;;24.77;20.40;;;3.60;99.90;;;;;;5121241;28;20853;-88
2023/11/18 03:55:17;;;;;;;23.43;20.40;;;3.60;99.90;;;;;;5120482;28;20470;-88
2023/11/18 03:57:46;;;;;;;27.20;23.50;;;3.70;99.90;;;;;;5121333;28;20451;-86
2023/11/18 04:00:17;;;;;;;28.83;24.87;;;3.70;99.90;;;;;;5121061;28;20481;-85
2023/11/18 04:02:46;;;;;;;27.57;22.83;;;3.70;99.90;;;;;;5120435;28;20464;-87
2023/11/18 04:05:15;;;;;;;34.83;27.40;;;3.70;99.90;;;;;;5120079;28;21078;-88
2023/11/18 04:07:43;;;;;;;31.33;26.50;;;3.70;99.90;;;;;;5120047;28;20439;-87
2023/11/18 04:10:14;;;;;;;33.33;27.10;;;3.70;99.90;;;;;;5120497;28;20822;-88
2023/11/18 04:12:46;;;;;;;30.50;24.77;;;3.70;99.90;;;;;;5120362;28;20450;-87
2023/11/18 04:15:15;;;;;;;30.07;25.40;;;3.80;99.90;;;;;;5120285;28;20531;-87
2023/11/18 04:17:44;;;;;;;36.70;28.10;;;3.70;99.90;;;;;;5119441;28;20479;-88
2023/11/18 04:20:15;;;;;;;32.17;26.10;;;3.80;99.90;;;;;;5119592;28;20534;-88
2023/11/18 04:22:45;;;;;;;34.10;25.83;;;3.80;99.90;;;;;;5119635;28;20470;-87
2023/11/18 04:25:16;;;;;;;33.67;25.87;;;3.80;99.90;;;;;;5119167;28;20836;-88
2023/11/18 04:27:45;;;;;;;33.70;25.40;;;3.80;99.90;;;;;;5120575;28;20441;-86
2023/11/18 04:30:15;;;;;;;34.00;26.53;;;3.80;99.90;;;;;;5120128;28;20504;-86
2023/11/18 04:32:43;;;;;;;32.47;25.80;;;3.80;99.90;;;;;;5119823;28;20454;-86
2023/11/18 04:35:12;;;;;;;33.10;25.70;;;3.90;99.90;;;;;;5119098;28;20490;-85
2023/11/18 04:37:42;;;;;;;42.20;26.50;;;3.80;99.90;;;;;;5119212;28;20454;-87
2023/11/18 04:40:12;;;;;;;32.53;26.63;;;3.80;99.90;;;;;;5119225;28;20489;-87
2023/11/18 04:42:43;;;;;;;34.70;26.47;;;3.80;99.90;;;;;;5118897;28;20473;-87
2023/11/18 04:45:14;;;;;;;32.30;25.20;;;3.90;99.90;;;;;;5119039;28;20481;-86
2023/11/18 04:47:43;;;;;;;38.60;25.77;;;3.80;99.90;;;;;;5120020;28;20439;-86
2023/11/18 04:50:12;;;;;;;30.77;24.33;;;3.80;99.90;;;;;;5118696;28;20451;-85
2023/11/18 04:52:41;;;;;;;33.40;27.80;;;3.80;99.90;;;;;;5119409;28;20440;-86
2023/11/18 04:55:13;;;;;;;35.17;26.93;;;3.80;99.90;;;;;;5118455;28;20559;-86
2023/11/18 04:57:43;;;;;;;33.30;26.37;;;3.80;99.90;;;;;;5119374;28;20863;-86
2023/11/18 05:00:16;;;;;;;34.90;26.80;;;3.80;99.90;;;;;;5119464;28;20447;-86
2023/11/18 05:02:47;;;;;;;32.13;24.97;;;3.90;99.90;;;;;;5120205;28;20451;-86
2023/11/18 05:05:16;;;;;;;33.93;26.53;;;3.90;99.90;;;;;;5118848;28;20486;-86
2023/11/18 05:07:45;;;;;;;30.37;26.30;;;3.90;99.90;;;;;;5117560;28;20447;-87
2023/11/18 05:10:13;;;;;;;35.30;24.67;;;3.80;99.90;;;;;;5117313;28;20455;-86
2023/11/18 05:12:53;;;;;;;32.30;25.30;;;3.90;99.90;;;;;;5117543;28;20454;-87
2023/11/18 05:15:24;;;;;;;32.87;26.17;;;3.90;99.90;;;;;;5117326;28;20823;-87
2023/11/18 05:17:53;;;;;;;33.70;27.40;;;4.00;99.90;;;;;;5118351;28;20538;-86
2023/11/18 05:20:22;;;;;;;31.00;25.40;;;3.90;99.90;;;;;;5117869;28;20959;-88
2023/11/18 05:22:50;;;;;;;31.67;25.80;;;3.90;99.90;;;;;;5119109;28;20445;-87
2023/11/18 05:25:19;;;;;;;33.17;28.30;;;3.90;99.90;;;;;;5117221;28;20494;-87
2023/11/18 05:27:48;;;;;;;35.43;27.77;;;3.90;99.90;;;;;;5117093;28;20447;-87
2023/11/18 05:30:17;;;;;;;30.70;25.40;;;3.90;99.90;;;;;;5117456;28;20450;-87
2023/11/18 05:32:46;;;;;;;33.43;25.40;;;3.90;99.90;;;;;;5117273;28;20446;-87
2023/11/18 05:35:14;;;;;;;35.60;27.53;;;4.10;99.90;;;;;;5116778;28;20550;-86
2023/11/18 05:37:43;;;;;;;33.90;26.60;;;3.90;99.90;;;;;;5118927;28;20435;-86
2023/11/18 05:40:15;;;;;;;33.10;27.07;;;3.90;99.90;;;;;;5116890;28;20960;-87
2023/11/18 05:42:46;;;;;;;32.17;27.30;;;3.90;99.90;;;;;;5117868;28;20792;-87
2023/11/18 05:45:27;;;;;;;35.77;27.03;;;3.90;99.90;;;;;;5116689;28;20570;-85
2023/11/18 05:47:56;;;;;;;37.30;30.27;;;3.90;99.90;;;;;;5117039;28;20508;-85
2023/11/18 05:50:25;;;;;;;36.80;30.83;;;3.80;99.90;;;;;;5117858;28;20838;-85
2023/11/18 05:52:55;;;;;;;39.13;29.97;;;4.00;99.90;;;;;;5115873;28;20451;-87
2023/11/18 05:55:24;;;;;;;36.30;29.53;;;3.90;99.90;;;;;;5116041;28;20462;-86
2023/11/18 05:57:52;;;;;;;34.93;29.00;;;4.10;99.90;;;;;;5117503;28;20514;-85
2023/11/18 06:00:24;;;;;;;38.53;33.40;;;4.00;99.90;;;;;;5116949;28;20455;-86
2023/11/18 06:03:03;;;;;;;39.57;29.40;;;4.00;99.90;;;;;;5115655;28;20981;-86
2023/11/18 06:05:34;;;;;;;39.80;32.20;;;4.00;99.90;;;;;;5115857;28;20474;-86
2023/11/18 06:08:04;;;;;;;38.70;30.33;;;4.00;99.90;;;;;;5116714;28;20857;-86
2023/11/18 06:10:32;;;;;;;42.10;31.20;;;4.00;99.90;;;;;;5115026;28;20439;-85
2023/11/18 06:13:04;;;;;;;39.87;31.07;;;4.00;99.90;;;;;;5114888;28;20455;-86
2023/11/18 06:15:35;;;;;;;39.30;30.27;;;4.00;99.90;;;;;;5115090;28;20470;-86
2023/11/18 06:18:04;;;;;;;38.17;30.57;;;4.00;99.90;;;;;;5115309;28;20435;-85
2023/11/18 06:20:38;;;;;;;42.80;32.53;;;4.00;99.90;;;;;;5114993;28;20948;-86
2023/11/18 06:23:06;;;;;;;42.03;33.07;;;4.00;99.90;;;;;;5115752;28;20455;-86
2023/11/18 06:25:35;;;;;;;44.80;32.00;;;4.00;99.90;;;;;;5116683;28;21029;-86
2023/11/18 06:28:07;;;;;;;43.80;33.60;;;4.00;99.90;;;;;;5116887;28;20444;-86
2023/11/18 06:30:38;;;;;;;39.30;29.90;;;4.00;99.90;;;;;;5119469;28;20450;-87
2023/11/18 06:33:06;;;;;;;45.30;33.07;;;4.00;99.90;;;;;;5116911;28;20443;-87
2023/11/18 06:35:35;;;;;;;48.53;38.23;;;4.00;99.90;;;;;;5117425;28;20505;-87
2023/11/18 06:38:03;;;;;;;46.30;36.37;;;4.00;99.90;;;;;;5118014;28;20974;-87
2023/11/18 06:40:32;;;;;;;52.03;36.93;;;4.00;99.90;;;;;;5116883;28;20446;-86
2023/11/18 06:43:02;;;;;;;52.13;35.60;;;4.10;99.90;;;;;;5118634;28;20447;-87
2023/11/18 06:45:31;;;;;;;50.00;35.73;;;4.10;99.90;;;;;;5117112;28;20964;-86
2023/11/18 06:48:01;;;;;;;48.50;34.53;;;4.10;99.90;;;;;;5118256;28;20438;-87
2023/11/18 06:50:31;;;;;;;47.90;35.67;;;4.10;99.90;;;;;;5117458;28;20443;-87
2023/11/18 06:53:00;;;;;;;52.67;36.10;;;4.10;99.90;;;;;;5118121;28;20435;-87
2023/11/18 06:55:29;;;;;;;48.33;36.93;;;4.10;99.90;;;;;;5117227;28;20525;-87
2023/11/18 06:57:58;;;;;;;48.60;36.50;;;4.10;99.90;;;;;;5116863;28;20538;-86
2023/11/18 07:00:27;;;;;;;49.40;38.43;;;4.10;99.90;;;;;;5117011;28;20504;-86
2023/11/18 07:02:57;;;;;;;55.10;38.30;;;4.40;99.90;;;;;;5117834;28;20448;-88
2023/11/18 07:05:27;;;;;;;55.73;40.20;;;4.20;99.90;;;;;;5117609;28;20539;-87
2023/11/18 07:07:55;;;;;;;49.33;36.50;;;4.20;99.90;;;;;;5117276;28;20441;-86
2023/11/18 07:10:25;;;;;;;65.47;40.50;;;4.20;99.90;;;;;;5117773;28;20455;-88
2023/11/18 07:12:53;;;;;;;57.10;39.20;;;4.20;99.90;;;;;;5117372;28;20571;-88
2023/11/18 07:15:22;;;;;;;58.17;39.00;;;4.20;99.90;;;;;;5119190;28;20550;-85
2023/11/18 07:17:51;;;;;;;53.47;38.80;;;4.20;99.90;;;;;;5120809;28;20435;-88
2023/11/18 07:20:23;;;;;;;52.37;39.20;;;4.20;99.90;;;;;;5116715;28;20527;-86
2023/11/18 07:22:54;;;;;;;63.00;43.30;;;4.30;99.90;;;;;;5116605;28;20432;-86
2023/11/18 07:25:22;;;;;;;59.00;44.30;;;4.30;99.90;;;;;;5120506;28;20473;-86
2023/11/18 07:27:51;;;;;;;59.63;42.80;;;4.30;99.90;;;;;;5121070;28;20454;-86
2023/11/18 07:30:20;;;;;;;72.10;48.23;;;4.30;99.90;;;;;;5123224;28;20454;-86
2023/11/18 07:32:49;;;;;;;65.87;49.10;;;4.30;99.90;;;;;;5120701;28;20458;-85
2023/11/18 07:35:18;;;;;;;69.70;49.23;;;4.30;99.90;;;;;;5120755;28;20471;-85
2023/11/18 07:37:47;;;;;;;66.43;46.60;;;4.30;99.90;;;;;;5121104;28;20450;-86
2023/11/18 07:40:22;;;;;;;70.67;48.50;;;4.40;99.90;;;;;;5120380;28;20446;-86
2023/11/18 07:42:50;;;;;;;68.93;44.20;;;4.40;99.90;;;;;;5119636;28;20806;-86
2023/11/18 07:45:19;;;;;;;73.60;43.60;;;4.40;99.90;;;;;;5123273;28;20459;-87
2023/11/18 07:47:47;;;;;;;68.87;44.73;;;4.40;99.90;;;;;;5122029;28;20971;-86
2023/11/18 07:50:19;;;;;;;68.83;42.83;;;4.40;99.90;;;;;;5121756;28;20448;-87
2023/11/18 07:52:48;;;;;;;69.10;45.43;;;4.40;99.90;;;;;;5121907;28;20473;-86
2023/11/18 07:55:18;;;;;;;71.43;44.83;;;4.40;99.90;;;;;;5119418;28;20463;-87
2023/11/18 07:57:46;;;;;;;73.80;51.67;;;4.50;99.90;;;;;;5121854;27;20442;-86
2023/11/18 08:00:15;;;;;;;78.37;51.07;;;4.50;99.90;;;;;;5119009;28;20447;-86
2023/11/18 08:02:45;;;;;;;75.80;49.60;;;4.50;99.90;;;;;;5119137;28;20520;-87
2023/11/18 08:05:14;;;;;;;71.10;48.67;;;4.60;99.90;;;;;;5120137;28;20554;-86
2023/11/18 08:07:44;;;;;;;79.73;47.03;;;4.60;99.90;;;;;;5118778;28;20467;-86
2023/11/18 08:10:18;;;;;;;73.13;45.10;;;4.60;99.90;;;;;;5118617;28;20435;-86
2023/11/18 08:12:49;;;;;;;71.47;46.00;;;4.60;99.90;;;;;;5118665;28;20488;-87
2023/11/18 08:15:19;;;;;;;81.43;50.37;;;4.60;99.90;;;;;;5118769;28;20485;-86
2023/11/18 08:17:48;;;;;;;57.53;39.07;;;4.60;99.90;;;;;;5118746;28;20448;-87
2023/11/18 08:20:17;;;;;;;74.70;47.83;;;4.60;99.90;;;;;;5119232;28;20470;-86
2023/11/18 08:22:45;;;;;;;75.90;51.73;;;4.70;99.90;;;;;;5118270;28;20501;-86
2023/11/18 08:25:17;;;;;;;75.43;49.77;;;4.70;99.90;;;;;;5120065;28;20467;-86
2023/11/18 08:27:45;;;;;;;76.70;47.77;;;4.70;99.90;;;;;;5120041;28;20561;-87
2023/11/18 08:30:17;;;;;;;56.43;37.37;;;4.70;99.90;;;;;;5120114;28;20496;-86
2023/11/18 08:32:47;;;;;;;69.17;42.60;;;4.70;99.90;;;;;;5119589;28;20456;-86
2023/11/18 08:35:16;;;;;;;71.17;45.53;;;4.80;99.90;;;;;;5118640;28;20463;-86
2023/11/18 08:37:45;;;;;;;67.10;43.80;;;4.80;99.90;;;;;;5118891;28;20479;-85
2023/11/18 08:40:15;;;;;;;64.87;42.43;;;4.80;99.90;;;;;;5118550;28;20447;-86
2023/11/18 08:42:49;;;;;;;71.73;41.83;;;4.80;99.90;;;;;;5119508;28;20453;-86
2023/11/18 08:45:27;;;;;;;62.77;41.50;;;4.80;99.90;;;;;;5118318;28;20473;-86
2023/11/18 08:47:56;;;;;;;65.60;40.20;;;4.80;99.90;;;;;;5117755;28;20470;-87
2023/11/18 08:50:25;;;;;;;57.00;41.33;;;4.80;99.90;;;;;;5118610;28;20451;-86
2023/11/18 08:52:57;;;;;;;60.73;44.13;;;4.90;99.90;;;;;;5118019;28;20461;-86
2023/11/18 08:55:41;;;;;;;65.73;41.93;;;4.90;99.90;;;;;;5119616;28;20822;-86
2023/11/18 08:58:19;;;;;;;60.20;41.33;;;4.90;99.90;;;;;;5118053;28;20439;-89
2023/11/18 09:00:53;;;;;;;63.30;40.10;;;4.90;99.90;;;;;;5119108;28;20569;-88
2023/11/18 09:03:28;;;;;;;62.53;43.90;;;5.00;99.90;;;;;;5119977;28;20503;-88
2023/11/18 09:05:59;;;;;;;65.47;43.20;;;4.90;99.90;;;;;;5120255;28;20494;-88
2023/11/18 09:08:29;;;;;;;62.87;41.33;;;4.90;99.90;;;;;;5117883;28;20493;-86
2023/11/18 09:10:58;;;;;;;57.80;40.53;;;5.00;99.90;;;;;;5118633;28;20493;-87
2023/11/18 09:13:28;;;;;;;55.70;39.10;;;5.00;99.90;;;;;;5117221;28;20451;-88
2023/11/18 09:16:00;;;;;;;57.70;38.50;;;5.10;99.90;;;;;;5118099;28;20463;-88
2023/11/18 09:18:30;;;;;;;55.10;37.93;;;5.10;99.90;;;;;;5117747;28;20444;-88
2023/11/18 09:21:00;;;;;;;56.30;38.93;;;5.10;99.90;;;;;;5117880;28;20526;-88
2023/11/18 09:23:31;;;;;;;55.70;40.67;;;5.20;99.90;;;;;;5117615;28;20436;-88
2023/11/18 09:26:00;;;;;;;51.23;38.20;;;5.20;99.90;;;;;;5119292;28;20474;-88
2023/11/18 09:28:29;;;;;;;50.63;37.37;;;5.20;99.90;;;;;;5120139;28;20468;-88
2023/11/18 09:31:00;;;;;;;57.87;40.87;;;5.30;99.90;;;;;;5120470;28;20477;-89
2023/11/18 09:33:32;;;;;;;48.83;38.83;;;5.30;99.90;;;;;;5119980;28;20486;-89
2023/11/18 09:36:02;;;;;;;51.97;43.47;;;5.30;99.90;;;;;;5119239;28;20463;-88
2023/11/18 09:38:32;;;;;;;56.13;40.30;;;5.40;99.90;;;;;;5120085;28;20467;-86
2023/11/18 09:41:02;;;;;;;56.70;40.90;;;5.40;99.90;;;;;;5119797;28;20809;-89
2023/11/18 09:43:35;;;;;;;54.67;37.37;;;5.50;99.90;;;;;;5121312;28;20427;-86
2023/11/18 09:46:16;;;;;;;51.33;40.10;;;5.50;99.90;;;;;;5118342;28;20471;-88
2023/11/18 09:48:52;;;;;;;52.17;40.30;;;5.50;99.90;;;;;;5120441;28;20980;-86
2023/11/18 09:51:29;;;;;;;53.00;40.47;;;5.50;99.90;;;;;;5120729;28;20443;-86
2023/11/18 09:54:01;;;;;;;53.43;37.90;;;5.60;99.90;;;;;;5121148;28;20462;-86
2023/11/18 09:56:37;;;;;;;47.27;37.37;;;5.60;99.90;;;;;;5119625;28;20967;-88
2023/11/18 09:59:15;;;;;;;51.30;41.00;;;5.60;99.90;;;;;;5119145;28;20538;-88
2023/11/18 10:01:53;;;;;;;51.03;39.30;;;5.60;99.90;;;;;;5119996;28;20461;-88
2023/11/18 10:04:22;;;;;;;46.60;36.13;;;5.60;99.90;;;;;;5119960;28;20455;-86
2023/11/18 10:06:53;;;;;;;45.97;36.60;;;5.60;99.90;;;;;;5120609;28;20482;-88
2023/11/18 10:09:28;;;;;;;46.40;36.53;;;5.60;99.90;;;;;;5119172;28;20483;-86
2023/11/18 10:12:05;;;;;;;48.37;35.83;;;5.70;99.90;;;;;;5119641;28;20448;-88
2023/11/18 10:14:34;;;;;;;42.23;34.60;;;5.60;99.90;;;;;;5121546;28;20526;-86
2023/11/18 10:17:08;;;;;;;48.13;36.63;;;5.70;99.90;;;;;;5123006;28;20435;-88
2023/11/18 10:19:56;;;;;;;45.50;38.00;;;5.70;99.90;;;;;;5120750;28;20439;-87
2023/11/18 10:22:27;;;;;;;47.37;36.40;;;5.70;99.90;;;;;;5120416;28;21019;-87
2023/11/18 10:24:57;;;;;;;45.10;35.37;;;5.70;99.90;;;;;;5121537;28;20508;-87
2023/11/18 10:27:27;;;;;;;44.60;34.90;;;5.80;99.90;;;;;;5119776;28;20491;-86
2023/11/18 10:30:02;;;;;;;47.10;34.90;;;5.80;99.90;;;;;;5120058;28;20443;-86
2023/11/18 10:32:35;;;;;;;43.17;32.83;;;5.80;99.90;;;;;;5122349;28;20436;-85
2023/11/18 10:35:06;;;;;;;36.07;29.00;;;5.80;99.90;;;;;;5119692;28;20463;-87
2023/11/18 10:37:42;;;;;;;44.70;39.27;;;5.80;99.90;;;;;;5120212;28;20443;-88
2023/11/18 10:40:14;;;;;;;43.40;33.83;;;5.80;99.90;;;;;;5119038;28;20471;-87
2023/11/18 10:42:48;;;;;;;46.60;35.23;;;5.90;99.90;;;;;;5118785;28;20986;-86
2023/11/18 10:45:24;;;;;;;40.40;32.23;;;5.90;99.90;;;;;;5118798;28;20463;-87
2023/11/18 10:47:57;;;;;;;46.47;38.63;;;6.00;99.90;;;;;;5121191;28;20473;-87
2023/11/18 10:50:31;;;;;;;45.67;37.17;;;6.00;99.90;;;;;;5118790;28;20443;-86
2023/11/18 10:53:02;;;;;;;45.90;37.97;;;6.00;99.90;;;;;;5120746;28;20482;-87
2023/11/18 10:55:38;;;;;;;45.60;37.40;;;6.00;99.90;;;;;;5119830;28;20524;-87
2023/11/18 10:58:07;;;;;;;47.90;37.60;;;6.10;99.90;;;;;;5118979;28;21013;-88
2023/11/18 11:01:00;;;;;;;48.00;38.27;;;6.10;99.90;;;;;;5119546;28;20440;-87
2023/11/18 11:03:33;;;;;;;46.27;37.83;;;6.10;99.90;;;;;;5119803;28;20486;-87
2023/11/18 11:06:17;;;;;;;46.30;37.80;;;6.20;99.90;;;;;;5118828;28;20475;-87
2023/11/18 11:08:48;;;;;;;46.13;37.50;;;6.20;99.90;;;;;;5119459;28;20825;-87
2023/11/18 11:11:18;;;;;;;46.50;36.93;;;6.20;99.90;;;;;;5119163;28;20466;-87
2023/11/18 11:13:50;;;;;;;48.80;40.80;;;6.40;99.90;;;;;;5118638;28;20488;-88
2023/11/18 11:16:20;;;;;;;45.93;37.53;;;6.30;99.90;;;;;;5119293;28;20866;-87
2023/11/18 11:18:57;;;;;;;50.13;38.87;;;6.30;99.90;;;;;;5118968;28;20431;-87
2023/11/18 11:21:29;;;;;;;47.53;38.70;;;6.40;99.90;;;;;;5120069;28;20530;-88
2023/11/18 11:24:05;;;;;;;56.27;39.23;;;6.70;99.90;;;;;;5119337;28;20478;-87
2023/11/18 11:26:48;;;;;;;45.20;35.90;;;6.40;99.90;;;;;;5119059;28;20448;-87
2023/11/18 11:29:28;;;;;;;46.23;36.57;;;6.40;99.90;;;;;;5118764;28;20820;-86
2023/11/18 11:32:12;;;;;;;47.77;39.00;;;6.40;99.90;;;;;;5119062;28;20455;-87
2023/11/18 11:34:53;;;;;;;48.63;39.83;;;6.40;99.90;;;;;;5120002;28;20899;-87
2023/11/18 11:37:26;;;;;;;51.00;40.87;;;6.50;99.90;;;;;;5121775;28;20481;-87
2023/11/18 11:39:58;;;;;;;51.20;41.00;;;6.40;99.90;;;;;;5118995;28;20439;-86
2023/11/18 11:42:28;;;;;;;47.43;40.50;;;6.50;99.90;;;;;;5119697;28;20447;-86
2023/11/18 11:44:58;;;;;;;49.30;41.23;;;6.50;99.90;;;;;;5118343;28;20479;-86
2023/11/18 11:47:28;;;;;;;47.60;37.80;;;6.50;99.90;;;;;;5119059;28;20437;-87
2023/11/18 11:50:21;;;;;;;49.20;38.87;;;6.50;99.90;;;;;;5118773;28;20517;-87
2023/11/18 11:52:58;;;;;;;48.47;40.33;;;6.60;99.90;;;;;;5119792;28;20897;-87
2023/11/18 11:55:36;;;;;;;47.73;39.63;;;6.60;99.90;;;;;;5118562;28;20473;-86
2023/11/18 11:58:06;;;;;;;48.00;41.07;;;6.60;99.90;;;;;;5120012;28;20493;-86
2023/11/18 12:00:35;;;;;;;47.53;37.70;;;6.60;99.90;;;;;;5119288;28;20820;-87
2023/11/18 12:03:04;;;;;;;50.33;43.37;;;6.60;99.90;;;;;;5119706;28;20456;-87
2023/11/18 12:05:34;;;;;;;44.73;38.03;;;6.60;99.90;;;;;;5118474;28;20471;-86
2023/11/18 12:08:04;;;;;;;50.27;41.43;;;6.70;99.90;;;;;;5118940;28;20835;-87
2023/11/18 12:10:35;;;;;;;48.80;40.30;;;6.70;99.90;;;;;;5123092;28;20869;-87
2023/11/18 12:13:16;;;;;;;51.60;39.70;;;6.70;99.90;;;;;;5125227;28;20435;-86
2023/11/18 12:15:56;;;;;;;52.60;40.73;;;6.70;99.90;;;;;;5125265;28;21031;-86
2023/11/18 12:18:26;;;;;;;49.73;40.40;;;6.80;99.90;;;;;;5124995;28;20441;-87
2023/11/18 12:20:57;;;;;;;49.90;41.73;;;6.80;99.90;;;;;;5124013;28;20498;-87
2023/11/18 12:23:26;;;;;;;46.60;39.57;;;6.80;99.90;;;;;;5126612;28;20509;-86
2023/11/18 12:25:56;;;;;;;51.43;41.77;;;6.80;99.90;;;;;;5126446;28;20545;-86
2023/11/18 12:28:34;;;;;;;49.70;40.73;;;6.70;99.90;;;;;;5126225;28;20875;-86
2023/11/18 12:31:15;;;;;;;48.63;42.07;;;6.80;99.90;;;;;;5125238;28;21030;-86
2023/11/18 12:34:02;;;;;;;55.50;42.67;;;6.80;99.90;;;;;;5117554;28;20439;-86
2023/11/18 12:37:07;;;;;;;47.50;40.17;;;6.80;99.90;;;;;;5116664;28;20568;-86
2023/11/18 12:40:13;;;;;;;46.17;37.13;;;6.80;99.90;;;;;;5117033;28;20449;-87
2023/11/18 12:43:00;;;;;;;53.40;39.93;;;6.80;99.90;;;;;;5118461;28;20440;-86
2023/11/18 12:46:00;;;;;;;50.60;40.47;;;6.80;99.90;;;;;;5121124;28;20518;-85
2023/11/18 12:48:32;;;;;;;45.57;37.63;;;6.80;99.90;;;;;;5140305;28;20440;-87
2023/11/18 12:51:01;;;;;;;47.77;38.47;;;6.80;99.90;;;;;;5141394;28;20446;-86
2023/11/18 12:53:31;;;;;;;49.47;38.47;;;6.80;99.90;;;;;;5141053;28;20434;-86
2023/11/18 12:56:01;;;;;;;45.30;37.97;;;6.80;99.90;;;;;;5139447;28;20967;-87